NCAR-RAP Real-Time Weather Data

Output produced by METARs form (23 June 2018  15:27 UTC)
found at http://weather.rap.ucar.edu/surface/
 
RJSR 231000Z VRB01KT CAVOK 21/13 Q1001
RJSR 230900Z 31003KT CAVOK 22/13 Q1001
RJSR 230800Z 27006KT CAVOK 24/11 Q1002
RJSR 230700Z 25009KT 220V280 CAVOK 25/10 Q1002
RJSR 230600Z 25011KT 9999 FEW030 BKN/// 26/11 Q1003
RJSR 230500Z 25007KT 210V280 9999 FEW030 BKN/// 27/12 Q1003
RJSR 230400Z 26009KT 210V280 CAVOK 26/12 Q1003
RJSR 230300Z 25009KT 210V280 CAVOK 27/12 Q1004
RJSR 230200Z 28009KT CAVOK 25/12 Q1005
RJSR 230100Z 23008KT 180V270 CAVOK 25/13 Q1006
RJSR 230000Z 22008KT 180V270 9999 FEW030 BKN/// 23/13 Q1007
RJSR 222300Z 22006KT 140V270 9999 FEW030 BKN/// 22/14 Q1007
RJSR 221000Z 22010KT 9999 FEW025 SCT060 BKN/// 19/15 Q1006
RJSR 220900Z 22008KT 9999 FEW030 BKN050 19/16 Q1006
RJSR 220800Z 21009KT 180V260 9999 FEW020 SCT025 BKN030 20/16 Q1005
RJSR 220700Z 21010G21KT 9999 FEW020 SCT025 BKN030 20/16 Q1005
RJSR 220600Z 23013KT 200V270 9999 FEW025 SCT030 BKN050 21/15 Q1005
RJSR 220500Z 21013KT 180V250 9999 FEW025 SCT030 BKN050 21/15 Q1004
RJSR 220400Z 22012G22KT 180V250 9999 FEW030 BKN040 BKN070 21/14 Q1005
RJSR 220300Z 23015KT 9999 FEW030 SCT040 BKN070 21/13 Q1005
RJSR 220200Z 22014G24KT 9999 FEW030 SCT040 BKN070 20/13 Q1005
RJSR 220100Z 24013G24KT 210V280 9999 FEW020 SCT040 BKN070 21/13 Q1005
RJSR 220000Z 24011KT 190V280 9999 FEW020 SCT030 BKN060 20/13 Q1005
RJSR 212300Z 23009KT 200V280 9999 FEW015 SCT025 BKN060 19/13 Q1005
RJSR 211000Z 22008KT 9999 FEW010 SCT020 BKN040 19/15 Q1001
RJSR 210900Z 21009KT 170V250 9999 FEW010 SCT015 BKN040 20/16 Q1001
RJSR 210700Z 22009KT 190V270 9999 FEW010 SCT015 BKN040 21/21 Q1001
RJSR 210600Z 23013KT 9999 FEW010 SCT015 BKN050 21/21 Q1000
RJSR 210500Z 23008KT 190V270 9999 FEW010 SCT020 BKN/// 22/22 Q1000
RJSR 210400Z 22009KT 190V260 9999 -SHRA FEW005 SCT012 BKN020 20/20 Q1000